sensor_id;sensor_type;location;lat;lon;timestamp;pressure;altitude;pressure_sealevel;temperature;humidity
59329;BME280;45100;46.926;7.452;2023-06-22T00:00:59;95241.39;;;21.87;78.68
59329;BME280;45100;46.926;7.452;2023-06-22T00:03:30;95242.15;;;21.78;79.18
59329;BME280;45100;46.926;7.452;2023-06-22T00:06:01;95244.52;;;21.73;79.85
59329;BME280;45100;46.926;7.452;2023-06-22T00:08:31;95237.66;;;21.71;79.95
59329;BME280;45100;46.926;7.452;2023-06-22T00:11:02;95244.17;;;21.71;80.25
59329;BME280;45100;46.926;7.452;2023-06-22T00:13:33;95246.42;;;21.71;80.45
59329;BME280;45100;46.926;7.452;2023-06-22T00:16:03;95255.14;;;21.71;80.07
59329;BME280;45100;46.926;7.452;2023-06-22T00:18:33;95258.17;;;21.70;79.16
59329;BME280;45100;46.926;7.452;2023-06-22T00:21:05;95256.29;;;21.64;78.84
59329;BME280;45100;46.926;7.452;2023-06-22T00:23:34;95253.91;;;21.59;78.98
59329;BME280;45100;46.926;7.452;2023-06-22T00:26:05;95251.34;;;21.55;79.17
59329;BME280;45100;46.926;7.452;2023-06-22T00:28:36;95252.37;;;21.53;79.10
59329;BME280;45100;46.926;7.452;2023-06-22T00:31:06;95251.09;;;21.50;78.88
59329;BME280;45100;46.926;7.452;2023-06-22T00:36:09;95240.23;;;21.45;78.33
59329;BME280;45100;46.926;7.452;2023-06-22T00:38:41;95237.98;;;21.42;78.62
59329;BME280;45100;46.926;7.452;2023-06-22T00:41:11;95238.47;;;21.37;78.86
59329;BME280;45100;46.926;7.452;2023-06-22T00:43:42;95245.67;;;21.33;79.12
59329;BME280;45100;46.926;7.452;2023-06-22T00:46:13;95245.48;;;21.32;78.95
59329;BME280;45100;46.926;7.452;2023-06-22T00:48:44;95250.12;;;21.30;78.28
59329;BME280;45100;46.926;7.452;2023-06-22T00:53:45;95248.89;;;21.17;77.89
59329;BME280;45100;46.926;7.452;2023-06-22T00:58:53;95249.95;;;21.04;78.07
59329;BME280;45100;46.926;7.452;2023-06-22T01:01:23;95253.25;;;21.00;78.39
59329;BME280;45100;46.926;7.452;2023-06-22T01:03:59;95257.09;;;20.97;78.85
59329;BME280;45100;46.926;7.452;2023-06-22T01:06:35;95252.86;;;20.96;79.06
59329;BME280;45100;46.926;7.452;2023-06-22T01:09:06;95252.05;;;20.94;79.32
59329;BME280;45100;46.926;7.452;2023-06-22T01:11:36;95248.69;;;20.92;79.35
59329;BME280;45100;46.926;7.452;2023-06-22T01:14:03;95248.84;;;20.88;79.01
59329;BME280;45100;46.926;7.452;2023-06-22T01:16:29;95245.18;;;20.80;78.53
59329;BME280;45100;46.926;7.452;2023-06-22T01:21:28;95242.90;;;20.61;78.98
59329;BME280;45100;46.926;7.452;2023-06-22T01:24:23;95239.29;;;20.52;78.89
59329;BME280;45100;46.926;7.452;2023-06-22T01:26:43;95236.30;;;20.44;78.64
59329;BME280;45100;46.926;7.452;2023-06-22T01:31:31;95235.66;;;20.38;79.06
59329;BME280;45100;46.926;7.452;2023-06-22T01:34:02;95234.62;;;20.36;79.06
59329;BME280;45100;46.926;7.452;2023-06-22T01:36:32;95226.66;;;20.33;79.27
59329;BME280;45100;46.926;7.452;2023-06-22T01:39:02;95229.16;;;20.29;79.40
59329;BME280;45100;46.926;7.452;2023-06-22T01:44:06;95222.53;;;20.20;80.07
59329;BME280;45100;46.926;7.452;2023-06-22T01:46:37;95222.39;;;20.21;79.97
59329;BME280;45100;46.926;7.452;2023-06-22T01:49:07;95228.30;;;20.23;79.94
59329;BME280;45100;46.926;7.452;2023-06-22T01:51:36;95226.56;;;20.26;79.86
59329;BME280;45100;46.926;7.452;2023-06-22T01:54:08;95220.84;;;20.28;79.44
59329;BME280;45100;46.926;7.452;2023-06-22T01:56:38;95219.37;;;20.28;79.17
59329;BME280;45100;46.926;7.452;2023-06-22T01:59:27;95225.11;;;20.28;79.21
59329;BME280;45100;46.926;7.452;2023-06-22T02:01:49;95216.02;;;20.24;79.21
59329;BME280;45100;46.926;7.452;2023-06-22T02:04:17;95219.23;;;20.25;79.21
59329;BME280;45100;46.926;7.452;2023-06-22T02:06:43;95213.16;;;20.25;79.38
59329;BME280;45100;46.926;7.452;2023-06-22T02:09:16;95206.17;;;20.24;79.27
59329;BME280;45100;46.926;7.452;2023-06-22T02:11:44;95202.75;;;20.22;79.29
59329;BME280;45100;46.926;7.452;2023-06-22T02:14:13;95200.11;;;20.21;79.20
59329;BME280;45100;46.926;7.452;2023-06-22T02:19:16;95196.09;;;20.17;79.54
59329;BME280;45100;46.926;7.452;2023-06-22T02:21:46;95198.67;;;20.16;80.10
59329;BME280;45100;46.926;7.452;2023-06-22T02:24:17;95197.55;;;20.14;80.29
59329;BME280;45100;46.926;7.452;2023-06-22T02:26:47;95196.62;;;20.13;80.44
59329;BME280;45100;46.926;7.452;2023-06-22T02:29:18;95190.80;;;20.12;79.92
59329;BME280;45100;46.926;7.452;2023-06-22T02:31:49;95183.75;;;20.12;79.37
59329;BME280;45100;46.926;7.452;2023-06-22T02:34:21;95186.05;;;20.10;78.17
59329;BME280;45100;46.926;7.452;2023-06-22T02:36:53;95184.77;;;20.08;77.68
59329;BME280;45100;46.926;7.452;2023-06-22T02:39:24;95186.30;;;20.08;77.48
59329;BME280;45100;46.926;7.452;2023-06-22T02:41:53;95172.14;;;20.08;76.87
59329;BME280;45100;46.926;7.452;2023-06-22T02:44:22;95168.81;;;20.09;76.50
59329;BME280;45100;46.926;7.452;2023-06-22T02:46:55;95164.33;;;20.09;76.47
59329;BME280;45100;46.926;7.452;2023-06-22T02:49:24;95165.53;;;20.09;76.25
59329;BME280;45100;46.926;7.452;2023-06-22T02:51:57;95164.13;;;20.10;76.14
59329;BME280;45100;46.926;7.452;2023-06-22T02:54:26;95163.25;;;20.11;75.97
59329;BME280;45100;46.926;7.452;2023-06-22T02:56:56;95157.31;;;20.12;75.87
59329;BME280;45100;46.926;7.452;2023-06-22T02:59:27;95152.99;;;20.14;75.83
59329;BME280;45100;46.926;7.452;2023-06-22T03:01:58;95145.39;;;20.14;76.28
59329;BME280;45100;46.926;7.452;2023-06-22T03:04:29;95149.42;;;20.12;76.77
59329;BME280;45100;46.926;7.452;2023-06-22T03:07:02;95145.80;;;20.07;77.39
59329;BME280;45100;46.926;7.452;2023-06-22T03:09:30;95145.43;;;20.01;77.75
59329;BME280;45100;46.926;7.452;2023-06-22T03:12:00;95143.70;;;19.95;77.82
59329;BME280;45100;46.926;7.452;2023-06-22T03:14:30;95146.61;;;19.89;77.95
59329;BME280;45100;46.926;7.452;2023-06-22T03:17:04;95153.86;;;19.85;78.23
59329;BME280;45100;46.926;7.452;2023-06-22T03:19:32;95159.05;;;19.80;78.55
59329;BME280;45100;46.926;7.452;2023-06-22T03:22:03;95160.78;;;19.76;78.76
59329;BME280;45100;46.926;7.452;2023-06-22T03:24:35;95154.28;;;19.72;78.98
59329;BME280;45100;46.926;7.452;2023-06-22T03:29:39;95169.23;;;19.68;79.05
59329;BME280;45100;46.926;7.452;2023-06-22T03:32:08;95167.59;;;19.67;78.85
59329;BME280;45100;46.926;7.452;2023-06-22T03:34:39;95169.38;;;19.65;78.66
59329;BME280;45100;46.926;7.452;2023-06-22T03:37:10;95169.97;;;19.65;78.35
59329;BME280;45100;46.926;7.452;2023-06-22T03:39:41;95163.80;;;19.66;78.03
59329;BME280;45100;46.926;7.452;2023-06-22T03:44:44;95156.34;;;19.69;77.54
59329;BME280;45100;46.926;7.452;2023-06-22T03:47:14;95156.17;;;19.69;77.48
59329;BME280;45100;46.926;7.452;2023-06-22T03:49:44;95155.77;;;19.71;77.90
59329;BME280;45100;46.926;7.452;2023-06-22T03:52:15;95154.09;;;19.74;77.81
59329;BME280;45100;46.926;7.452;2023-06-22T03:54:46;95152.86;;;19.78;77.56
59329;BME280;45100;46.926;7.452;2023-06-22T03:57:17;95144.13;;;19.81;77.26
59329;BME280;45100;46.926;7.452;2023-06-22T03:59:47;95139.16;;;19.86;77.28
59329;BME280;45100;46.926;7.452;2023-06-22T04:02:18;95145.09;;;19.93;77.39
59329;BME280;45100;46.926;7.452;2023-06-22T04:04:49;95142.20;;;20.01;77.03
59329;BME280;45100;46.926;7.452;2023-06-22T04:07:20;95143.84;;;20.12;76.42
59329;BME280;45100;46.926;7.452;2023-06-22T04:09:50;95144.79;;;20.23;76.02
59329;BME280;45100;46.926;7.452;2023-06-22T04:12:21;95152.75;;;20.38;75.34
59329;BME280;45100;46.926;7.452;2023-06-22T04:14:52;95151.53;;;20.53;75.00
59329;BME280;45100;46.926;7.452;2023-06-22T04:17:25;95156.16;;;20.70;74.33
59329;BME280;45100;46.926;7.452;2023-06-22T04:19:53;95151.68;;;20.88;73.35
59329;BME280;45100;46.926;7.452;2023-06-22T04:22:24;95156.80;;;21.05;72.83
59329;BME280;45100;46.926;7.452;2023-06-22T04:24:55;95154.53;;;21.16;72.39
59329;BME280;45100;46.926;7.452;2023-06-22T04:27:25;95156.18;;;21.27;72.23
59329;BME280;45100;46.926;7.452;2023-06-22T04:29:56;95155.52;;;21.39;72.07
59329;BME280;45100;46.926;7.452;2023-06-22T04:32:26;95158.55;;;21.56;71.53
59329;BME280;45100;46.926;7.452;2023-06-22T04:34:57;95158.67;;;21.80;70.62
59329;BME280;45100;46.926;7.452;2023-06-22T04:40:01;95152.38;;;22.34;68.23
59329;BME280;45100;46.926;7.452;2023-06-22T04:42:34;95153.67;;;22.58;67.39
59329;BME280;45100;46.926;7.452;2023-06-22T04:45:01;95149.94;;;22.83;66.33
59329;BME280;45100;46.926;7.452;2023-06-22T04:47:32;95154.92;;;23.04;65.37
59329;BME280;45100;46.926;7.452;2023-06-22T04:52:37;95145.90;;;23.41;64.14
59329;BME280;45100;46.926;7.452;2023-06-22T04:55:07;95154.84;;;23.61;64.01
59329;BME280;45100;46.926;7.452;2023-06-22T04:57:40;95152.12;;;23.93;62.33
59329;BME280;45100;46.926;7.452;2023-06-22T05:00:14;95154.30;;;24.23;61.57
59329;BME280;45100;46.926;7.452;2023-06-22T05:02:38;95161.66;;;24.52;60.72
59329;BME280;45100;46.926;7.452;2023-06-22T05:05:09;95154.73;;;24.70;59.93
59329;BME280;45100;46.926;7.452;2023-06-22T05:07:44;95160.89;;;24.74;60.06
59329;BME280;45100;46.926;7.452;2023-06-22T05:10:12;95164.37;;;24.68;60.03
59329;BME280;45100;46.926;7.452;2023-06-22T05:12:41;95163.75;;;24.57;60.15
59329;BME280;45100;46.926;7.452;2023-06-22T05:15:11;95171.30;;;24.54;60.70
59329;BME280;45100;46.926;7.452;2023-06-22T05:20:19;95175.12;;;24.95;58.91
59329;BME280;45100;46.926;7.452;2023-06-22T05:22:49;95181.81;;;25.17;58.47
59329;BME280;45100;46.926;7.452;2023-06-22T05:25:20;95178.66;;;25.38;57.23
59329;BME280;45100;46.926;7.452;2023-06-22T05:27:52;95185.94;;;25.57;56.79
59329;BME280;45100;46.926;7.452;2023-06-22T05:30:21;95195.03;;;25.71;56.11
59329;BME280;45100;46.926;7.452;2023-06-22T05:32:53;95196.50;;;25.83;55.61
59329;BME280;45100;46.926;7.452;2023-06-22T05:35:22;95193.20;;;26.03;55.93
59329;BME280;45100;46.926;7.452;2023-06-22T05:37:53;95194.70;;;26.34;54.05
59329;BME280;45100;46.926;7.452;2023-06-22T05:40:23;95182.23;;;26.65;54.14
59329;BME280;45100;46.926;7.452;2023-06-22T05:42:54;95183.30;;;26.87;54.00
59329;BME280;45100;46.926;7.452;2023-06-22T05:45:25;95195.73;;;27.01;54.16
59329;BME280;45100;46.926;7.452;2023-06-22T05:47:56;95209.41;;;27.07;53.26
59329;BME280;45100;46.926;7.452;2023-06-22T05:50:26;95219.08;;;26.97;53.24
59329;BME280;45100;46.926;7.452;2023-06-22T05:52:57;95226.19;;;26.69;54.01
59329;BME280;45100;46.926;7.452;2023-06-22T05:55:28;95225.91;;;26.34;54.88
59329;BME280;45100;46.926;7.452;2023-06-22T05:57:59;95231.50;;;25.96;55.57
59329;BME280;45100;46.926;7.452;2023-06-22T06:00:29;95242.01;;;25.58;55.70
59329;BME280;45100;46.926;7.452;2023-06-22T06:03:04;95261.70;;;25.13;56.20
59329;BME280;45100;46.926;7.452;2023-06-22T06:05:31;95317.80;;;24.62;58.08
59329;BME280;45100;46.926;7.452;2023-06-22T06:08:03;95406.42;;;24.01;59.87
59329;BME280;45100;46.926;7.452;2023-06-22T06:10:33;95383.81;;;23.47;61.72
59329;BME280;45100;46.926;7.452;2023-06-22T06:13:05;95366.14;;;23.00;64.19
59329;BME280;45100;46.926;7.452;2023-06-22T06:15:34;95370.75;;;22.61;66.04
59329;BME280;45100;46.926;7.452;2023-06-22T06:18:06;95368.94;;;22.31;67.19
59329;BME280;45100;46.926;7.452;2023-06-22T06:20:35;95363.05;;;22.04;68.71
59329;BME280;45100;46.926;7.452;2023-06-22T06:23:06;95373.67;;;21.81;70.24
59329;BME280;45100;46.926;7.452;2023-06-22T06:25:36;95361.91;;;21.67;70.94
59329;BME280;45100;46.926;7.452;2023-06-22T06:28:07;95363.27;;;21.61;71.48
59329;BME280;45100;46.926;7.452;2023-06-22T06:30:38;95359.68;;;21.59;71.88
59329;BME280;45100;46.926;7.452;2023-06-22T06:33:09;95409.30;;;21.61;72.15
59329;BME280;45100;46.926;7.452;2023-06-22T06:35:39;95389.60;;;21.59;72.10
59329;BME280;45100;46.926;7.452;2023-06-22T06:38:09;95369.70;;;21.59;71.95
59329;BME280;45100;46.926;7.452;2023-06-22T06:40:40;95400.23;;;21.58;72.06
59329;BME280;45100;46.926;7.452;2023-06-22T06:43:11;95397.84;;;21.61;72.00
59329;BME280;45100;46.926;7.452;2023-06-22T06:45:42;95400.38;;;21.68;72.07
59329;BME280;45100;46.926;7.452;2023-06-22T06:48:13;95401.89;;;21.78;71.97
59329;BME280;45100;46.926;7.452;2023-06-22T06:50:44;95416.45;;;21.87;71.61
59329;BME280;45100;46.926;7.452;2023-06-22T06:53:14;95418.34;;;21.93;71.53
59329;BME280;45100;46.926;7.452;2023-06-22T06:55:46;95402.68;;;21.98;71.80
59329;BME280;45100;46.926;7.452;2023-06-22T06:58:17;95391.62;;;22.03;71.76
59329;BME280;45100;46.926;7.452;2023-06-22T07:00:46;95392.88;;;22.08;71.10
59329;BME280;45100;46.926;7.452;2023-06-22T07:05:51;95366.55;;;22.27;70.60
59329;BME280;45100;46.926;7.452;2023-06-22T07:08:20;95365.20;;;22.36;69.98
59329;BME280;45100;46.926;7.452;2023-06-22T07:10:54;95355.31;;;22.42;69.74
59329;BME280;45100;46.926;7.452;2023-06-22T07:13:21;95358.06;;;22.47;69.67
59329;BME280;45100;46.926;7.452;2023-06-22T07:15:52;95350.78;;;22.54;69.46
59329;BME280;45100;46.926;7.452;2023-06-22T07:18:23;95344.62;;;22.59;68.77
59329;BME280;45100;46.926;7.452;2023-06-22T07:20:53;95335.45;;;22.59;68.97
59329;BME280;45100;46.926;7.452;2023-06-22T07:23:24;95326.50;;;22.57;69.12
59329;BME280;45100;46.926;7.452;2023-06-22T07:25:54;95330.72;;;22.60;69.20
59329;BME280;45100;46.926;7.452;2023-06-22T07:28:25;95334.67;;;22.66;69.43
59329;BME280;45100;46.926;7.452;2023-06-22T07:30:55;95336.59;;;22.80;69.24
59329;BME280;45100;46.926;7.452;2023-06-22T07:35:58;95332.70;;;23.12;69.13
59329;BME280;45100;46.926;7.452;2023-06-22T07:38:29;95334.16;;;23.22;69.09
59329;BME280;45100;46.926;7.452;2023-06-22T07:41:00;95329.89;;;23.32;68.82
59329;BME280;45100;46.926;7.452;2023-06-22T07:43:30;95331.81;;;23.46;68.38
59329;BME280;45100;46.926;7.452;2023-06-22T07:46:00;95328.16;;;23.63;68.02
59329;BME280;45100;46.926;7.452;2023-06-22T07:51:03;95312.26;;;23.73;67.09
59329;BME280;45100;46.926;7.452;2023-06-22T07:53:33;95307.34;;;23.74;66.75
59329;BME280;45100;46.926;7.452;2023-06-22T07:56:10;95306.09;;;23.75;66.92
59329;BME280;45100;46.926;7.452;2023-06-22T07:58:34;95304.04;;;23.76;67.03
59329;BME280;45100;46.926;7.452;2023-06-22T08:01:06;95303.05;;;23.79;66.99
59329;BME280;45100;46.926;7.452;2023-06-22T08:03:36;95296.92;;;23.82;66.69
59329;BME280;45100;46.926;7.452;2023-06-22T08:06:09;95287.58;;;23.81;66.45
59329;BME280;45100;46.926;7.452;2023-06-22T08:08:37;95279.66;;;23.81;66.51
59329;BME280;45100;46.926;7.452;2023-06-22T08:11:08;95271.98;;;23.83;66.27
59329;BME280;45100;46.926;7.452;2023-06-22T08:13:38;95269.16;;;23.86;66.30
59329;BME280;45100;46.926;7.452;2023-06-22T08:16:09;95273.59;;;23.91;66.05
59329;BME280;45100;46.926;7.452;2023-06-22T08:18:39;95271.67;;;23.98;65.89
59329;BME280;45100;46.926;7.452;2023-06-22T08:21:12;95267.11;;;24.06;65.36
59329;BME280;45100;46.926;7.452;2023-06-22T08:23:41;95242.89;;;24.13;64.84
59329;BME280;45100;46.926;7.452;2023-06-22T08:26:10;95218.07;;;24.21;64.15
59329;BME280;45100;46.926;7.452;2023-06-22T08:28:41;95242.42;;;24.22;63.64
59329;BME280;45100;46.926;7.452;2023-06-22T08:31:14;95232.26;;;24.15;64.00
59329;BME280;45100;46.926;7.452;2023-06-22T08:33:47;95233.95;;;24.08;64.42
59329;BME280;45100;46.926;7.452;2023-06-22T08:36:14;95241.23;;;24.05;64.42
59329;BME280;45100;46.926;7.452;2023-06-22T08:38:43;95240.38;;;24.04;64.31
59329;BME280;45100;46.926;7.452;2023-06-22T08:41:14;95239.72;;;24.06;64.81
59329;BME280;45100;46.926;7.452;2023-06-22T08:43:45;95243.63;;;24.08;64.61
59329;BME280;45100;46.926;7.452;2023-06-22T08:46:23;95238.23;;;24.12;63.77
59329;BME280;45100;46.926;7.452;2023-06-22T08:48:46;95236.39;;;24.19;64.16
59329;BME280;45100;46.926;7.452;2023-06-22T08:51:16;95238.41;;;24.30;63.84
59329;BME280;45100;46.926;7.452;2023-06-22T08:53:47;95235.59;;;24.41;63.30
59329;BME280;45100;46.926;7.452;2023-06-22T08:56:18;95233.12;;;24.50;62.89
59329;BME280;45100;46.926;7.452;2023-06-22T08:58:48;95230.08;;;24.56;62.18
59329;BME280;45100;46.926;7.452;2023-06-22T09:01:19;95225.27;;;24.61;62.58
59329;BME280;45100;46.926;7.452;2023-06-22T09:03:58;95226.20;;;24.63;63.38
59329;BME280;45100;46.926;7.452;2023-06-22T09:06:20;95225.03;;;24.60;63.26
59329;BME280;45100;46.926;7.452;2023-06-22T09:08:50;95217.91;;;24.56;63.25
59329;BME280;45100;46.926;7.452;2023-06-22T09:11:21;95214.52;;;24.55;63.43
59329;BME280;45100;46.926;7.452;2023-06-22T09:13:54;95215.06;;;24.54;63.43
59329;BME280;45100;46.926;7.452;2023-06-22T09:16:23;95215.52;;;24.49;63.55
59329;BME280;45100;46.926;7.452;2023-06-22T09:21:27;95211.98;;;24.41;64.13
59329;BME280;45100;46.926;7.452;2023-06-22T09:23:57;95210.91;;;24.42;64.54
59329;BME280;45100;46.926;7.452;2023-06-22T09:26:28;95202.10;;;24.52;64.46
59329;BME280;45100;46.926;7.452;2023-06-22T09:28:59;95197.47;;;24.68;64.17
59329;BME280;45100;46.926;7.452;2023-06-22T09:31:29;95180.91;;;24.80;63.70
59329;BME280;45100;46.926;7.452;2023-06-22T09:34:00;95182.96;;;24.93;63.31
59329;BME280;45100;46.926;7.452;2023-06-22T09:36:31;95182.96;;;25.02;62.69
59329;BME280;45100;46.926;7.452;2023-06-22T09:39:07;95171.89;;;25.07;62.76
59329;BME280;45100;46.926;7.452;2023-06-22T09:41:32;95172.12;;;25.10;62.96
59329;BME280;45100;46.926;7.452;2023-06-22T09:44:03;95171.16;;;25.15;62.32
59329;BME280;45100;46.926;7.452;2023-06-22T09:46:33;95169.77;;;25.21;59.90
59329;BME280;45100;46.926;7.452;2023-06-22T09:49:04;95173.88;;;25.20;59.52
59329;BME280;45100;46.926;7.452;2023-06-22T09:51:35;95182.05;;;25.16;59.37
59329;BME280;45100;46.926;7.452;2023-06-22T09:54:06;95188.43;;;25.10;59.28
59329;BME280;45100;46.926;7.452;2023-06-22T09:56:38;95193.25;;;25.04;59.51
59329;BME280;45100;46.926;7.452;2023-06-22T09:59:06;95197.33;;;24.95;60.42
59329;BME280;45100;46.926;7.452;2023-06-22T10:01:37;95205.66;;;24.85;60.92
59329;BME280;45100;46.926;7.452;2023-06-22T10:06:41;95212.94;;;24.75;61.78
59329;BME280;45100;46.926;7.452;2023-06-22T10:09:11;95214.98;;;24.77;62.28
59329;BME280;45100;46.926;7.452;2023-06-22T10:11:41;95214.41;;;24.80;62.34
59329;BME280;45100;46.926;7.452;2023-06-22T10:14:12;95213.91;;;24.82;62.28
59329;BME280;45100;46.926;7.452;2023-06-22T10:16:43;95217.61;;;24.80;61.98
59329;BME280;45100;46.926;7.452;2023-06-22T10:19:14;95220.24;;;24.75;61.90
59329;BME280;45100;46.926;7.452;2023-06-22T10:21:44;95228.59;;;24.67;62.56
59329;BME280;45100;46.926;7.452;2023-06-22T10:24:15;95241.05;;;24.61;63.67
59329;BME280;45100;46.926;7.452;2023-06-22T10:26:46;95245.94;;;24.58;64.74
59329;BME280;45100;46.926;7.452;2023-06-22T10:29:17;95246.96;;;24.54;65.11
59329;BME280;45100;46.926;7.452;2023-06-22T10:31:47;95263.91;;;24.51;66.39
59329;BME280;45100;46.926;7.452;2023-06-22T10:34:18;95288.45;;;24.45;66.23
59329;BME280;45100;46.926;7.452;2023-06-22T10:36:49;95287.45;;;24.35;66.83
59329;BME280;45100;46.926;7.452;2023-06-22T10:39:38;95285.12;;;24.29;67.55
59329;BME280;45100;46.926;7.452;2023-06-22T10:41:50;95267.00;;;24.32;67.01
59329;BME280;45100;46.926;7.452;2023-06-22T10:44:21;95279.55;;;24.40;68.04
59329;BME280;45100;46.926;7.452;2023-06-22T10:46:51;95292.68;;;24.52;67.79
59329;BME280;45100;46.926;7.452;2023-06-22T10:49:22;95290.68;;;24.66;65.71
59329;BME280;45100;46.926;7.452;2023-06-22T10:51:52;95297.77;;;24.79;66.08
59329;BME280;45100;46.926;7.452;2023-06-22T10:54:23;95302.52;;;24.93;65.33
59329;BME280;45100;46.926;7.452;2023-06-22T10:56:54;95311.82;;;25.04;64.41
59329;BME280;45100;46.926;7.452;2023-06-22T10:59:26;95316.58;;;25.11;63.59
59329;BME280;45100;46.926;7.452;2023-06-22T11:01:55;95311.36;;;25.12;63.64
59329;BME280;45100;46.926;7.452;2023-06-22T11:04:25;95317.42;;;25.10;63.70
59329;BME280;45100;46.926;7.452;2023-06-22T11:06:57;95307.39;;;25.12;62.93
59329;BME280;45100;46.926;7.452;2023-06-22T11:09:26;95309.94;;;25.12;63.79
59329;BME280;45100;46.926;7.452;2023-06-22T11:11:57;95310.82;;;25.17;63.53
59329;BME280;45100;46.926;7.452;2023-06-22T11:14:27;95302.52;;;25.30;62.53
59329;BME280;45100;46.926;7.452;2023-06-22T11:16:58;95307.69;;;25.40;61.48
59329;BME280;45100;46.926;7.452;2023-06-22T11:19:28;95306.53;;;25.45;62.04
59329;BME280;45100;46.926;7.452;2023-06-22T11:21:59;95303.48;;;25.50;62.65
59329;BME280;45100;46.926;7.452;2023-06-22T11:24:29;95303.31;;;25.55;63.04
59329;BME280;45100;46.926;7.452;2023-06-22T11:27:00;95304.62;;;25.59;61.05
59329;BME280;45100;46.926;7.452;2023-06-22T11:29:31;95301.61;;;25.58;60.38
59329;BME280;45100;46.926;7.452;2023-06-22T11:32:01;95303.67;;;25.54;61.09
59329;BME280;45100;46.926;7.452;2023-06-22T11:34:31;95304.85;;;25.47;61.41
59329;BME280;45100;46.926;7.452;2023-06-22T11:37:02;95306.94;;;25.39;61.80
59329;BME280;45100;46.926;7.452;2023-06-22T11:39:32;95304.09;;;25.31;62.58
59329;BME280;45100;46.926;7.452;2023-06-22T11:42:03;95308.97;;;25.20;63.18
59329;BME280;45100;46.926;7.452;2023-06-22T11:44:34;95315.92;;;25.13;63.89
59329;BME280;45100;46.926;7.452;2023-06-22T11:47:05;95303.08;;;25.07;63.75
59329;BME280;45100;46.926;7.452;2023-06-22T11:49:35;95294.30;;;24.98;64.09
59329;BME280;45100;46.926;7.452;2023-06-22T11:52:06;95286.33;;;24.88;64.61
59329;BME280;45100;46.926;7.452;2023-06-22T11:54:36;95278.56;;;24.76;64.90
59329;BME280;45100;46.926;7.452;2023-06-22T11:57:07;95282.91;;;24.73;65.60
59329;BME280;45100;46.926;7.452;2023-06-22T11:59:37;95292.80;;;24.72;65.20
59329;BME280;45100;46.926;7.452;2023-06-22T12:02:10;95293.00;;;24.76;65.43
59329;BME280;45100;46.926;7.452;2023-06-22T12:04:38;95285.97;;;24.84;65.00
59329;BME280;45100;46.926;7.452;2023-06-22T12:07:09;95286.05;;;24.92;64.87
59329;BME280;45100;46.926;7.452;2023-06-22T12:09:39;95276.68;;;25.02;65.23
59329;BME280;45100;46.926;7.452;2023-06-22T12:12:10;95281.14;;;25.20;64.82
59329;BME280;45100;46.926;7.452;2023-06-22T12:14:41;95272.75;;;25.34;63.39
59329;BME280;45100;46.926;7.452;2023-06-22T12:17:11;95264.55;;;25.41;62.55
59329;BME280;45100;46.926;7.452;2023-06-22T12:19:42;95254.39;;;25.45;62.32
59329;BME280;45100;46.926;7.452;2023-06-22T12:22:12;95258.93;;;25.41;60.61
59329;BME280;45100;46.926;7.452;2023-06-22T12:24:43;95252.69;;;25.36;60.81
59329;BME280;45100;46.926;7.452;2023-06-22T12:27:13;95260.32;;;25.32;61.33
59329;BME280;45100;46.926;7.452;2023-06-22T12:29:47;95263.94;;;25.34;60.91
59329;BME280;45100;46.926;7.452;2023-06-22T12:34:48;95276.06;;;25.34;61.33
59329;BME280;45100;46.926;7.452;2023-06-22T12:37:18;95290.73;;;25.38;61.41
59329;BME280;45100;46.926;7.452;2023-06-22T12:39:49;95297.27;;;25.44;60.87
59329;BME280;45100;46.926;7.452;2023-06-22T12:42:23;95308.10;;;25.51;60.51
59329;BME280;45100;46.926;7.452;2023-06-22T12:44:50;95321.30;;;25.54;59.82
59329;BME280;45100;46.926;7.452;2023-06-22T12:47:20;95334.56;;;25.52;59.49
59329;BME280;45100;46.926;7.452;2023-06-22T12:49:50;95336.31;;;25.44;58.92
59329;BME280;45100;46.926;7.452;2023-06-22T12:52:21;95337.50;;;25.33;59.92
59329;BME280;45100;46.926;7.452;2023-06-22T12:54:53;95341.54;;;25.25;60.09
59329;BME280;45100;46.926;7.452;2023-06-22T12:57:23;95337.00;;;25.17;60.00
59329;BME280;45100;46.926;7.452;2023-06-22T12:59:53;95330.78;;;25.08;60.60
59329;BME280;45100;46.926;7.452;2023-06-22T13:02:23;95325.94;;;24.99;62.65
59329;BME280;45100;46.926;7.452;2023-06-22T13:04:54;95315.44;;;24.89;60.04
59329;BME280;45100;46.926;7.452;2023-06-22T13:07:24;95293.78;;;24.76;60.43
59329;BME280;45100;46.926;7.452;2023-06-22T13:09:55;95283.58;;;24.65;60.78
59329;BME280;45100;46.926;7.452;2023-06-22T13:14:59;95306.66;;;24.44;66.49
59329;BME280;45100;46.926;7.452;2023-06-22T13:17:30;95292.83;;;24.37;65.04
59329;BME280;45100;46.926;7.452;2023-06-22T13:20:00;95294.83;;;24.36;67.09
59329;BME280;45100;46.926;7.452;2023-06-22T13:22:33;95299.87;;;24.37;68.45
59329;BME280;45100;46.926;7.452;2023-06-22T13:25:01;95296.28;;;24.43;65.72
59329;BME280;45100;46.926;7.452;2023-06-22T13:27:32;95287.19;;;24.49;66.15
59329;BME280;45100;46.926;7.452;2023-06-22T13:30:04;95278.34;;;24.54;68.20
59329;BME280;45100;46.926;7.452;2023-06-22T13:32:33;95272.10;;;24.55;68.21
59329;BME280;45100;46.926;7.452;2023-06-22T13:35:04;95279.12;;;24.53;68.88
59329;BME280;45100;46.926;7.452;2023-06-22T13:37:34;95275.28;;;24.44;67.44
59329;BME280;45100;46.926;7.452;2023-06-22T13:40:08;95276.13;;;24.33;67.00
59329;BME280;45100;46.926;7.452;2023-06-22T13:42:35;95271.56;;;24.19;67.89
59329;BME280;45100;46.926;7.452;2023-06-22T13:45:07;95275.52;;;24.05;68.45
59329;BME280;45100;46.926;7.452;2023-06-22T13:47:37;95274.83;;;23.93;68.86
59329;BME280;45100;46.926;7.452;2023-06-22T13:50:08;95265.93;;;23.84;66.70
59329;BME280;45100;46.926;7.452;2023-06-22T13:52:39;95267.97;;;23.78;67.61
59329;BME280;45100;46.926;7.452;2023-06-22T13:55:09;95264.24;;;23.75;69.97
59329;BME280;45100;46.926;7.452;2023-06-22T13:57:39;95261.52;;;23.66;70.92
59329;BME280;45100;46.926;7.452;2023-06-22T14:00:10;95229.16;;;23.52;71.17
59329;BME280;45100;46.926;7.452;2023-06-22T14:02:42;95241.48;;;23.33;73.92
59329;BME280;45100;46.926;7.452;2023-06-22T14:05:12;95226.07;;;23.13;74.70